TEJ103 SCSE-SCEL
Flight info
| Callsign | TEJ103 |
|---|---|
| Flight time | N/A |
| Altitude | 25000 |
| Route | DCT EDRON UL302 SIMOK SIMOK7B |
| Aircraft | A21N/M-SDE2E3FGHIRWXY/LB1 |
Departure
| Time | 2026-04-27 01:42 |
|---|---|
| Airport | La Florida Airport (SCSE) |
Arrival
| Time | N/A |
|---|---|
| Airport | Comodoro Arturo Merino Benítez International Airport (SCEL) |
| Time | Latitude | Longitude | Altitude | Speed | Heading |
|---|---|---|---|---|---|
| 2026-04-27 01:24 | -29.91630 | -71.20399 | 486 ft | 0 kts | 205° |
| 2026-04-27 01:35 | -29.91615 | -71.20390 | 479 ft | 4 kts | 203° |
| 2026-04-27 01:35 | -29.91594 | -71.20388 | 478 ft | 4 kts | 160° |
| 2026-04-27 01:35 | -29.91575 | -71.20405 | 486 ft | 4 kts | 116° |
| 2026-04-27 01:35 | -29.91566 | -71.20433 | 478 ft | 3 kts | 115° |
| 2026-04-27 01:36 | -29.91564 | -71.20435 | 478 ft | 0 kts | 116° |
| 2026-04-27 01:36 | -29.91565 | -71.20435 | 486 ft | 0 kts | 116° |
| 2026-04-27 01:38 | -29.91573 | -71.20417 | 480 ft | 8 kts | 116° |
| 2026-04-27 01:38 | -29.91602 | -71.20350 | 486 ft | 10 kts | 117° |
| 2026-04-27 01:38 | -29.91635 | -71.20273 | 480 ft | 12 kts | 116° |
| 2026-04-27 01:38 | -29.91670 | -71.20192 | 485 ft | 10 kts | 115° |
| 2026-04-27 01:39 | -29.91662 | -71.20152 | 478 ft | 4 kts | 28° |
| 2026-04-27 01:39 | -29.91658 | -71.20150 | 485 ft | 0 kts | 27° |
| 2026-04-27 01:39 | -29.91644 | -71.20141 | 477 ft | 8 kts | 27° |
| 2026-04-27 01:40 | -29.91599 | -71.20081 | 482 ft | 12 kts | 104° |
| 2026-04-27 01:40 | -29.91652 | -71.19936 | 479 ft | 25 kts | 114° |
| 2026-04-27 01:40 | -29.91730 | -71.19750 | 482 ft | 27 kts | 116° |
| 2026-04-27 01:40 | -29.91821 | -71.19540 | 482 ft | 30 kts | 116° |
| 2026-04-27 01:41 | -29.91918 | -71.19311 | 481 ft | 32 kts | 116° |
| 2026-04-27 01:41 | -29.92003 | -71.19139 | 483 ft | 13 kts | 139° |
| 2026-04-27 01:41 | -29.92031 | -71.19066 | 476 ft | 11 kts | 5° |
| 2026-04-27 01:41 | -29.92004 | -71.19109 | 479 ft | 20 kts | 296° |
| 2026-04-27 01:42 | -29.91802 | -71.19582 | 481 ft | 111 kts | 296° |
| 2026-04-27 01:42 | -29.91347 | -71.20647 | 615 ft | 170 kts | 296° |
| 2026-04-27 01:42 | -29.90815 | -71.21913 | 1421 ft | 183 kts | 295° |
| 2026-04-27 01:42 | -29.90203 | -71.23382 | 1999 ft | 223 kts | 296° |
| 2026-04-27 01:43 | -29.89458 | -71.25127 | 2756 ft | 254 kts | 296° |
| 2026-04-27 01:43 | -29.88950 | -71.27110 | 3962 ft | 264 kts | 273° |
| 2026-04-27 01:43 | -29.89213 | -71.29205 | 5064 ft | 269 kts | 247° |
| 2026-04-27 01:43 | -29.90245 | -71.30988 | 5976 ft | 270 kts | 221° |
| 2026-04-27 01:44 | -29.91841 | -71.32100 | 6709 ft | 271 kts | 197° |
| 2026-04-27 01:44 | -29.93687 | -71.32337 | 7261 ft | 274 kts | 174° |
| 2026-04-27 01:44 | -29.95571 | -71.31919 | 7752 ft | 278 kts | 167° |
| 2026-04-27 01:44 | -29.97461 | -71.31403 | 8207 ft | 282 kts | 167° |
| 2026-04-27 01:45 | -29.99386 | -71.30900 | 8720 ft | 285 kts | 168° |
| 2026-04-27 01:45 | -30.01339 | -71.30413 | 9298 ft | 289 kts | 168° |
| 2026-04-27 01:45 | -30.03319 | -71.29933 | 9944 ft | 293 kts | 169° |
| 2026-04-27 01:45 | -30.05350 | -71.29449 | 10425 ft | 306 kts | 169° |
| 2026-04-27 01:46 | -30.07500 | -71.28944 | 10732 ft | 326 kts | 169° |
| 2026-04-27 01:46 | -30.09781 | -71.28649 | 11055 ft | 343 kts | 180° |
| 2026-04-27 01:46 | -30.12194 | -71.28701 | 11655 ft | 350 kts | 182° |
| 2026-04-27 01:46 | -30.14638 | -71.28791 | 12377 ft | 354 kts | 182° |
| 2026-04-27 01:47 | -30.17111 | -71.28879 | 13121 ft | 356 kts | 182° |
| 2026-04-27 01:47 | -30.19601 | -71.28964 | 13839 ft | 360 kts | 182° |
| 2026-04-27 01:47 | -30.22113 | -71.29046 | 14459 ft | 363 kts | 182° |
| 2026-04-27 01:47 | -30.24646 | -71.29126 | 15089 ft | 365 kts | 182° |
| 2026-04-27 01:48 | -30.27191 | -71.29205 | 15697 ft | 367 kts | 182° |
| 2026-04-27 01:48 | -30.29724 | -71.29284 | 16295 ft | 370 kts | 183° |
| 2026-04-27 01:48 | -30.32305 | -71.29365 | 16884 ft | 373 kts | 183° |
| 2026-04-27 01:48 | -30.34905 | -71.29446 | 17493 ft | 375 kts | 183° |
| 2026-04-27 01:49 | -30.37523 | -71.29527 | 18085 ft | 378 kts | 183° |
| 2026-04-27 01:49 | -30.40164 | -71.29609 | 18640 ft | 381 kts | 183° |
| 2026-04-27 01:49 | -30.42821 | -71.29692 | 19172 ft | 384 kts | 183° |
| 2026-04-27 01:49 | -30.45496 | -71.29775 | 19713 ft | 386 kts | 184° |
| 2026-04-27 01:50 | -30.48189 | -71.29859 | 20247 ft | 388 kts | 184° |
| 2026-04-27 01:50 | -30.50898 | -71.29943 | 20783 ft | 391 kts | 184° |
| 2026-04-27 01:50 | -30.53589 | -71.29988 | 21305 ft | 394 kts | 180° |
| 2026-04-27 01:50 | -30.56313 | -71.29476 | 21833 ft | 402 kts | 165° |
| 2026-04-27 01:51 | -30.58875 | -71.28154 | 22519 ft | 404 kts | 155° |
| 2026-04-27 01:51 | -30.61338 | -71.26592 | 23257 ft | 403 kts | 154° |
| 2026-04-27 01:51 | -30.63783 | -71.25019 | 23923 ft | 402 kts | 154° |
| 2026-04-27 01:51 | -30.66238 | -71.23464 | 24508 ft | 402 kts | 155° |
| 2026-04-27 01:52 | -30.68699 | -71.21922 | 24928 ft | 402 kts | 155° |
| 2026-04-27 01:52 | -30.71159 | -71.20384 | 25068 ft | 401 kts | 155° |
| 2026-04-27 01:52 | -30.73619 | -71.18851 | 25088 ft | 401 kts | 156° |
| 2026-04-27 01:52 | -30.76049 | -71.17339 | 25084 ft | 402 kts | 155° |
| 2026-04-27 01:53 | -30.78511 | -71.15804 | 25076 ft | 402 kts | 155° |
| 2026-04-27 01:53 | -30.80970 | -71.14270 | 25072 ft | 401 kts | 155° |
| 2026-04-27 01:53 | -30.83436 | -71.12735 | 25070 ft | 401 kts | 155° |
| 2026-04-27 01:53 | -30.85894 | -71.11201 | 25074 ft | 401 kts | 155° |
| 2026-04-27 01:54 | -30.88357 | -71.09662 | 25076 ft | 401 kts | 155° |
| 2026-04-27 01:54 | -30.90816 | -71.08123 | 25073 ft | 401 kts | 155° |
| 2026-04-27 01:54 | -30.93278 | -71.06581 | 25080 ft | 401 kts | 155° |
| 2026-04-27 01:54 | -30.95723 | -71.05048 | 25077 ft | 398 kts | 155° |
| 2026-04-27 01:55 | -30.98167 | -71.03516 | 25081 ft | 400 kts | 155° |
| 2026-04-27 01:55 | -31.00581 | -71.02002 | 25072 ft | 399 kts | 155° |
| 2026-04-27 01:55 | -31.03025 | -71.00467 | 25079 ft | 399 kts | 155° |
| 2026-04-27 01:55 | -31.05468 | -70.98932 | 25079 ft | 399 kts | 155° |
| 2026-04-27 01:56 | -31.10436 | -70.95813 | 25098 ft | 419 kts | 155° |
| 2026-04-27 01:56 | -31.13058 | -70.94167 | 25113 ft | 436 kts | 155° |
| 2026-04-27 01:56 | -31.15777 | -70.92457 | 25114 ft | 452 kts | 155° |
| 2026-04-27 01:57 | -31.18588 | -70.90686 | 25121 ft | 466 kts | 154° |
| 2026-04-27 01:57 | -31.21460 | -70.88871 | 25109 ft | 472 kts | 154° |
| 2026-04-27 01:57 | -31.24320 | -70.87063 | 25130 ft | 476 kts | 155° |
| 2026-04-27 01:57 | -31.27254 | -70.85214 | 25132 ft | 480 kts | 155° |
| 2026-04-27 01:58 | -31.30209 | -70.83366 | 25123 ft | 482 kts | 156° |
| 2026-04-27 01:58 | -31.33286 | -70.81967 | 25111 ft | 465 kts | 169° |
| 2026-04-27 01:58 | -31.36398 | -70.81501 | 25114 ft | 439 kts | 182° |
| 2026-04-27 01:58 | -31.39366 | -70.81692 | 25113 ft | 417 kts | 188° |
| 2026-04-27 01:59 | -31.42197 | -70.82008 | 25119 ft | 402 kts | 188° |
| 2026-04-27 01:59 | -31.44957 | -70.82314 | 25109 ft | 395 kts | 188° |
| 2026-04-27 01:59 | -31.47652 | -70.82599 | 25110 ft | 394 kts | 187° |
| 2026-04-27 01:59 | -31.50388 | -70.82878 | 25117 ft | 394 kts | 187° |
| 2026-04-27 02:00 | -31.53113 | -70.83149 | 25122 ft | 392 kts | 187° |
| 2026-04-27 02:00 | -31.55835 | -70.83419 | 25125 ft | 393 kts | 187° |
| 2026-04-27 02:00 | -31.58550 | -70.83688 | 25118 ft | 391 kts | 187° |
| 2026-04-27 02:00 | -31.61252 | -70.83954 | 25118 ft | 389 kts | 187° |
| 2026-04-27 02:01 | -31.63950 | -70.84221 | 25121 ft | 389 kts | 187° |
| 2026-04-27 02:01 | -31.66647 | -70.84487 | 25117 ft | 389 kts | 187° |
| 2026-04-27 02:01 | -31.69339 | -70.84753 | 25122 ft | 389 kts | 187° |
| 2026-04-27 02:01 | -31.71993 | -70.85018 | 25116 ft | 388 kts | 187° |
| 2026-04-27 02:02 | -31.74688 | -70.85273 | 25110 ft | 389 kts | 186° |
| 2026-04-27 02:02 | -31.77399 | -70.85277 | 25114 ft | 390 kts | 181° |
| 2026-04-27 02:02 | -31.80117 | -70.85184 | 25112 ft | 391 kts | 181° |
| 2026-04-27 02:02 | -31.82832 | -70.85078 | 25109 ft | 390 kts | 181° |
| 2026-04-27 02:03 | -31.85547 | -70.84975 | 25102 ft | 390 kts | 181° |
| 2026-04-27 02:03 | -31.88259 | -70.84874 | 25109 ft | 390 kts | 181° |
| 2026-04-27 02:03 | -31.90973 | -70.84776 | 25100 ft | 390 kts | 181° |
| 2026-04-27 02:03 | -31.93648 | -70.84679 | 25103 ft | 390 kts | 181° |
| 2026-04-27 02:04 | -31.96356 | -70.84583 | 25115 ft | 388 kts | 181° |
| 2026-04-27 02:04 | -31.99044 | -70.84488 | 25106 ft | 386 kts | 181° |
| 2026-04-27 02:04 | -32.01734 | -70.84389 | 25103 ft | 385 kts | 181° |
| 2026-04-27 02:04 | -32.04386 | -70.84292 | 24608 ft | 382 kts | 181° |
| 2026-04-27 02:05 | -32.07071 | -70.84198 | 23755 ft | 390 kts | 181° |
| 2026-04-27 02:05 | -32.09808 | -70.84108 | 22961 ft | 393 kts | 181° |
| 2026-04-27 02:05 | -32.12522 | -70.84014 | 22434 ft | 388 kts | 181° |
| 2026-04-27 02:05 | -32.15207 | -70.83912 | 21921 ft | 384 kts | 181° |
| 2026-04-27 02:06 | -32.17826 | -70.83817 | 21427 ft | 379 kts | 181° |
| 2026-04-27 02:06 | -32.20447 | -70.83724 | 20948 ft | 376 kts | 181° |
| 2026-04-27 02:06 | -32.23048 | -70.83626 | 20474 ft | 371 kts | 182° |
| 2026-04-27 02:06 | -32.25608 | -70.83535 | 20016 ft | 366 kts | 182° |
| 2026-04-27 02:07 | -32.28140 | -70.83445 | 19556 ft | 362 kts | 181° |
| 2026-04-27 02:07 | -32.30643 | -70.83356 | 19085 ft | 358 kts | 181° |
| 2026-04-27 02:07 | -32.33121 | -70.83268 | 18641 ft | 354 kts | 181° |
| 2026-04-27 02:07 | -32.35535 | -70.83180 | 18212 ft | 350 kts | 181° |
| 2026-04-27 02:08 | -32.37950 | -70.83094 | 17734 ft | 345 kts | 181° |
| 2026-04-27 02:08 | -32.40334 | -70.83008 | 17293 ft | 341 kts | 181° |
| 2026-04-27 02:08 | -32.42689 | -70.82925 | 16861 ft | 337 kts | 181° |
| 2026-04-27 02:08 | -32.45021 | -70.82842 | 16443 ft | 333 kts | 180° |
| 2026-04-27 02:09 | -32.47333 | -70.82757 | 16030 ft | 331 kts | 180° |
| 2026-04-27 02:09 | -32.49633 | -70.82673 | 15628 ft | 330 kts | 180° |
| 2026-04-27 02:09 | -32.51926 | -70.82590 | 15241 ft | 330 kts | 180° |
| 2026-04-27 02:09 | -32.54217 | -70.82508 | 14826 ft | 329 kts | 179° |
| 2026-04-27 02:10 | -32.56475 | -70.82427 | 14417 ft | 329 kts | 179° |
| 2026-04-27 02:10 | -32.58752 | -70.82345 | 14011 ft | 327 kts | 179° |
| 2026-04-27 02:10 | -32.61028 | -70.82264 | 13565 ft | 327 kts | 179° |
| 2026-04-27 02:10 | -32.63297 | -70.82182 | 13162 ft | 324 kts | 179° |
| 2026-04-27 02:11 | -32.65514 | -70.82100 | 12953 ft | 314 kts | 179° |
| 2026-04-27 02:11 | -32.67664 | -70.82023 | 12798 ft | 303 kts | 179° |
| 2026-04-27 02:11 | -32.69732 | -70.81949 | 12683 ft | 292 kts | 179° |
| 2026-04-27 02:11 | -32.71728 | -70.81878 | 12572 ft | 281 kts | 179° |
| 2026-04-27 02:12 | -32.73004 | -70.81833 | 12497 ft | 274 kts | 179° |
| 2026-04-27 02:12 | -32.75510 | -70.81741 | 12054 ft | 272 kts | 179° |
| 2026-04-27 02:12 | -32.77404 | -70.81670 | 11652 ft | 272 kts | 179° |
| 2026-04-27 02:12 | -32.79300 | -70.81601 | 11269 ft | 272 kts | 178° |
| 2026-04-27 02:13 | -32.81193 | -70.81530 | 10906 ft | 272 kts | 178° |
| 2026-04-27 02:13 | -32.83086 | -70.81460 | 10554 ft | 272 kts | 178° |
| 2026-04-27 02:13 | -32.84338 | -70.81414 | 10332 ft | 272 kts | 178° |
| 2026-04-27 02:13 | -32.86216 | -70.81344 | 10132 ft | 267 kts | 178° |
| 2026-04-27 02:14 | -32.88068 | -70.81277 | 10106 ft | 266 kts | 178° |
| 2026-04-27 02:14 | -32.90520 | -70.81189 | 10014 ft | 263 kts | 178° |
| 2026-04-27 02:14 | -32.92368 | -70.81120 | 9431 ft | 268 kts | 178° |
| 2026-04-27 02:14 | -32.94223 | -70.81027 | 8971 ft | 267 kts | 177° |
| 2026-04-27 02:15 | -32.96077 | -70.80926 | 8570 ft | 267 kts | 177° |
| 2026-04-27 02:15 | -32.97301 | -70.80857 | 8320 ft | 266 kts | 177° |
| 2026-04-27 02:15 | -32.99143 | -70.80727 | 7894 ft | 264 kts | 176° |
| 2026-04-27 02:15 | -33.00969 | -70.80597 | 7447 ft | 261 kts | 177° |
| 2026-04-27 02:16 | -33.02779 | -70.80503 | 7057 ft | 259 kts | 178° |
| 2026-04-27 02:16 | -33.04546 | -70.80413 | 6875 ft | 249 kts | 177° |
| 2026-04-27 02:16 | -33.06240 | -70.80324 | 6740 ft | 238 kts | 177° |
| 2026-04-27 02:16 | -33.07850 | -70.80238 | 6619 ft | 225 kts | 177° |
| 2026-04-27 02:17 | -33.09392 | -70.80157 | 6362 ft | 220 kts | 177° |
| 2026-04-27 02:17 | -33.10893 | -70.80078 | 6018 ft | 218 kts | 177° |
| 2026-04-27 02:17 | -33.11915 | -70.80024 | 5787 ft | 217 kts | 177° |